Time;durP1;ratioP1;P1;durP2;ratioP2;P2;SDS_P1;SDS_P2;PMS_P1;PMS_P2;Temp;Humidity;BMP_temperature;BMP_pressure;BME280_temperature;BME280_humidity;BME280_pressure;Samples;Min_cycle;Max_cycle;Signal;HPM_P1;HPM_P2
2023/10/05 00:01:27;;;;;;;9.05;2.55;;;13.30;99.90;;;;;;6265919;22;20876;-89
2023/10/05 00:03:53;;;;;;;8.50;2.17;;;13.90;99.90;;;;;;6268431;22;20388;-90
2023/10/05 00:06:26;;;;;;;9.93;2.70;;;13.60;99.90;;;;;;6266629;22;20376;-88
2023/10/05 00:08:54;;;;;;;11.05;2.30;;;13.90;99.90;;;;;;6267047;22;20380;-89
2023/10/05 00:11:29;;;;;;;8.98;2.15;;;14.00;99.90;;;;;;6268027;22;20372;-89
2023/10/05 00:13:59;;;;;;;10.13;1.95;;;13.40;99.90;;;;;;6265666;22;20430;-88
2023/10/05 00:16:37;;;;;;;11.60;2.00;;;13.90;99.90;;;;;;6242538;22;20986;-88
2023/10/05 00:19:11;;;;;;;10.10;1.90;;;14.00;99.90;;;;;;6265761;22;20377;-88
2023/10/05 00:21:48;;;;;;;9.40;1.60;;;13.80;99.90;;;;;;6267772;22;20376;-88
2023/10/05 00:24:15;;;;;;;7.60;1.67;;;14.10;99.90;;;;;;6270381;22;20400;-88
2023/10/05 00:26:43;;;;;;;13.60;2.05;;;14.20;99.90;;;;;;6271177;22;20358;-89
2023/10/05 00:29:19;;;;;;;10.57;1.90;;;14.00;99.90;;;;;;6273312;22;20794;-89
2023/10/05 00:31:46;;;;;;;10.63;1.95;;;14.10;99.90;;;;;;6270666;22;20366;-89
2023/10/05 00:36:49;;;;;;;9.57;1.70;;;14.20;99.90;;;;;;6272221;22;20704;-88
2023/10/05 00:39:20;;;;;;;13.07;1.83;;;14.70;99.90;;;;;;6272051;22;20367;-88
2023/10/05 00:42:00;;;;;;;13.27;1.92;;;14.20;99.90;;;;;;6247928;22;20370;-89
2023/10/05 00:44:29;;;;;;;11.45;2.08;;;14.80;99.90;;;;;;6245569;22;20394;-90
2023/10/05 00:46:55;;;;;;;10.87;1.60;;;14.30;99.90;;;;;;6273441;22;20680;-89
2023/10/05 00:49:23;;;;;;;8.48;1.45;;;14.30;99.90;;;;;;6271383;22;20362;-89
2023/10/05 00:52:02;;;;;;;9.43;1.33;;;14.50;99.90;;;;;;6272991;22;20452;-89
2023/10/05 00:54:31;;;;;;;13.05;2.08;;;14.40;99.90;;;;;;6272892;22;20445;-88
2023/10/05 00:57:09;;;;;;;10.63;2.10;;;14.60;99.90;;;;;;6271158;22;20405;-88
2023/10/05 00:59:36;;;;;;;10.52;1.38;;;14.60;99.90;;;;;;6247746;22;20365;-89
2023/10/05 01:04:34;;;;;;;11.15;1.67;;;14.50;99.90;;;;;;6272816;22;20779;-88
2023/10/05 01:07:19;;;;;;;12.07;1.60;;;14.70;99.90;;;;;;6271395;22;20445;-87
2023/10/05 01:14:52;;;;;;;10.18;1.17;;;14.40;99.90;;;;;;6270821;22;20375;-88
2023/10/05 01:17:26;;;;;;;8.57;1.42;;;14.40;99.90;;;;;;6273120;22;20420;-89
2023/10/05 01:19:59;;;;;;;10.95;1.73;;;14.40;99.90;;;;;;6246350;22;20366;-87
2023/10/05 01:22:32;;;;;;;8.82;1.55;;;14.50;99.90;;;;;;6272460;22;20425;-88
2023/10/05 01:24:59;;;;;;;10.63;1.55;;;14.40;99.90;;;;;;6272516;22;20398;-89
2023/10/05 01:27:29;;;;;;;10.40;1.30;;;14.40;99.90;;;;;;6270892;22;20381;-88
2023/10/05 01:29:59;;;;;;;8.43;1.02;;;14.60;99.90;;;;;;6272722;22;20355;-88
2023/10/05 01:32:26;;;;;;;8.70;1.33;;;14.40;99.90;;;;;;6270747;22;20401;-88
2023/10/05 01:34:52;;;;;;;10.32;1.40;;;14.40;99.90;;;;;;6273154;22;20371;-87
2023/10/05 01:37:22;;;;;;;13.07;2.00;;;14.40;99.90;;;;;;6271712;22;20413;-89
2023/10/05 01:39:48;;;;;;;9.38;1.48;;;14.20;99.90;;;;;;6271839;22;20409;-89
2023/10/05 01:42:14;;;;;;;10.10;1.90;;;15.10;99.90;;;;;;6272766;22;20684;-89
2023/10/05 01:44:49;;;;;;;12.93;1.70;;;14.50;99.90;;;;;;6270417;22;20386;-89
2023/10/05 01:47:16;;;;;;;7.80;1.27;;;14.80;99.90;;;;;;6247467;22;20369;-89
2023/10/05 01:49:43;;;;;;;10.30;1.50;;;14.50;99.90;;;;;;6244955;22;20359;-88
2023/10/05 01:52:09;;;;;;;8.27;1.30;;;14.50;99.90;;;;;;6247423;22;20679;-88
2023/10/05 01:54:36;;;;;;;10.07;1.33;;;14.50;99.90;;;;;;6271370;22;20400;-90
2023/10/05 01:57:06;;;;;;;10.20;1.75;;;14.80;99.90;;;;;;6272312;22;20362;-89
2023/10/05 01:59:34;;;;;;;10.30;1.60;;;14.90;99.90;;;;;;6272669;22;20374;-88
2023/10/05 02:02:10;;;;;;;9.20;1.42;;;14.80;99.90;;;;;;6270852;22;20370;-89
2023/10/05 02:04:39;;;;;;;9.30;1.40;;;15.00;99.90;;;;;;6272709;22;20448;-88
2023/10/05 02:07:05;;;;;;;9.50;1.38;;;14.90;99.90;;;;;;6244809;22;20370;-88
2023/10/05 02:09:31;;;;;;;12.23;2.10;;;14.70;99.90;;;;;;6247155;22;20362;-89
2023/10/05 02:12:01;;;;;;;11.93;1.73;;;14.90;99.90;;;;;;6245920;22;20873;-88
2023/10/05 02:14:28;;;;;;;11.70;1.95;;;14.80;99.90;;;;;;6271678;22;20913;-89
2023/10/05 02:16:54;;;;;;;10.95;1.85;;;15.10;99.90;;;;;;6274453;22;20731;-87
2023/10/05 02:19:20;;;;;;;9.82;1.80;;;14.60;99.90;;;;;;6247035;22;20378;-88
2023/10/05 02:21:46;;;;;;;12.33;1.93;;;14.50;99.90;;;;;;6274909;22;20445;-88
2023/10/05 02:24:18;;;;;;;14.30;2.13;;;14.60;99.90;;;;;;6272254;22;20463;-90
2023/10/05 02:29:23;;;;;;;14.20;1.97;;;14.80;99.90;;;;;;6273040;22;20834;-89
2023/10/05 02:32:22;;;;;;;12.35;2.20;;;14.90;99.90;;;;;;6247391;22;20354;-89
2023/10/05 02:34:42;;;;;;;13.57;1.92;;;14.80;99.90;;;;;;6269702;22;20436;-88
2023/10/05 02:37:11;;;;;;;10.25;1.55;;;14.70;99.90;;;;;;6271963;22;20998;-88
2023/10/05 02:39:41;;;;;;;12.00;2.05;;;14.70;99.90;;;;;;6301745;22;20351;-90
2023/10/05 02:42:15;;;;;;;10.50;1.90;;;14.70;99.90;;;;;;6272741;22;20384;-88
2023/10/05 02:44:45;;;;;;;11.18;2.08;;;14.40;99.90;;;;;;6248150;22;20389;-88
2023/10/05 02:47:12;;;;;;;13.68;2.22;;;14.60;99.90;;;;;;6274377;22;20431;-89
2023/10/05 02:49:43;;;;;;;12.32;1.80;;;14.60;99.90;;;;;;6272137;22;20366;-88
2023/10/05 02:52:16;;;;;;;11.25;2.00;;;15.00;99.90;;;;;;6248801;22;20402;-88
2023/10/05 02:54:48;;;;;;;11.20;1.83;;;15.10;99.90;;;;;;6272181;22;20362;-88
2023/10/05 02:57:16;;;;;;;12.63;2.00;;;14.60;99.90;;;;;;6274517;22;20388;-89
2023/10/05 02:59:43;;;;;;;13.70;2.20;;;14.60;99.90;;;;;;6273199;22;20445;-87
2023/10/05 03:02:11;;;;;;;13.25;2.13;;;14.60;99.90;;;;;;6272549;22;20370;-87
2023/10/05 03:04:58;;;;;;;14.77;2.50;;;14.40;99.90;;;;;;6274273;22;20387;-89
2023/10/05 03:07:25;;;;;;;12.07;2.53;;;14.60;99.90;;;;;;6272068;22;20367;-89
2023/10/05 03:09:52;;;;;;;14.65;2.38;;;14.50;99.90;;;;;;6274408;22;20363;-89
2023/10/05 03:12:22;;;;;;;16.23;2.33;;;14.50;99.90;;;;;;6272563;22;20402;-89
2023/10/05 03:14:50;;;;;;;12.82;2.30;;;14.80;99.90;;;;;;6248091;22;20400;-90
2023/10/05 03:17:19;;;;;;;10.02;1.83;;;14.50;99.90;;;;;;6274064;22;20424;-88
2023/10/05 03:19:45;;;;;;;13.38;2.22;;;14.50;99.90;;;;;;6272354;22;20358;-89
2023/10/05 03:22:13;;;;;;;16.57;2.30;;;14.50;99.90;;;;;;6248748;22;20432;-89
2023/10/05 03:24:47;;;;;;;12.00;1.93;;;14.40;99.90;;;;;;6246104;22;20387;-88
2023/10/05 03:27:14;;;;;;;12.82;2.85;;;14.60;99.90;;;;;;6248207;22;20401;-88
2023/10/05 03:29:42;;;;;;;12.50;2.10;;;14.50;99.90;;;;;;6272388;22;20843;-89
2023/10/05 03:34:35;;;;;;;15.00;2.13;;;15.10;99.90;;;;;;6273645;22;20374;-88
2023/10/05 03:37:13;;;;;;;12.40;2.03;;;14.90;99.90;;;;;;6271792;22;20366;-90
2023/10/05 03:39:52;;;;;;;14.50;2.45;;;14.60;99.90;;;;;;6273850;22;20420;-89
2023/10/05 03:42:21;;;;;;;14.37;2.20;;;14.90;99.90;;;;;;6246464;22;20427;-88
2023/10/05 03:44:59;;;;;;;12.45;2.50;;;14.70;99.90;;;;;;6273830;22;20395;-89
2023/10/05 03:47:25;;;;;;;14.90;2.08;;;15.10;99.90;;;;;;6248064;22;20382;-88
2023/10/05 03:49:56;;;;;;;13.88;1.92;;;14.60;99.90;;;;;;6272483;22;20363;-88
2023/10/05 03:52:23;;;;;;;12.83;2.03;;;14.90;99.90;;;;;;6248239;22;20363;-89
2023/10/05 03:54:49;;;;;;;10.30;2.17;;;14.80;99.90;;;;;;6271262;22;20703;-88
2023/10/05 03:57:16;;;;;;;12.83;2.03;;;14.60;99.90;;;;;;6248201;22;20394;-89
2023/10/05 03:59:42;;;;;;;13.32;2.00;;;14.90;99.90;;;;;;6271684;22;20366;-88
2023/10/05 04:02:09;;;;;;;14.87;2.37;;;14.60;99.90;;;;;;6273610;22;20369;-88
2023/10/05 04:04:35;;;;;;;14.57;2.38;;;14.80;99.90;;;;;;6272438;22;20383;-88
2023/10/05 04:07:04;;;;;;;12.35;1.90;;;14.80;99.90;;;;;;6272713;22;20363;-89
2023/10/05 04:09:30;;;;;;;11.85;2.00;;;14.40;99.90;;;;;;6273790;22;20417;-89
2023/10/05 04:11:56;;;;;;;12.45;2.15;;;14.60;99.90;;;;;;6271414;22;20362;-90
2023/10/05 04:14:22;;;;;;;14.93;2.53;;;14.40;99.90;;;;;;6248115;22;20691;-88
2023/10/05 04:16:51;;;;;;;12.13;1.98;;;14.70;99.90;;;;;;6246063;22;20387;-90
2023/10/05 04:19:17;;;;;;;14.27;2.80;;;14.60;99.90;;;;;;6273665;22;20743;-89
2023/10/05 04:21:46;;;;;;;13.60;2.55;;;14.40;99.90;;;;;;6272189;22;20416;-88
2023/10/05 04:24:14;;;;;;;14.07;2.57;;;14.70;99.90;;;;;;6272432;22;20719;-89
2023/10/05 04:26:44;;;;;;;15.90;2.70;;;14.40;99.90;;;;;;6273711;22;20379;-90
2023/10/05 04:29:11;;;;;;;13.82;2.63;;;13.80;99.90;;;;;;6246203;22;20752;-89
2023/10/05 04:31:36;;;;;;;16.85;2.67;;;14.10;99.90;;;;;;6273454;22;20359;-88
2023/10/05 04:34:08;;;;;;;14.30;2.17;;;15.10;99.90;;;;;;6270771;22;20450;-89
2023/10/05 04:36:34;;;;;;;11.90;2.10;;;14.40;99.90;;;;;;6247970;22;20355;-88
2023/10/05 04:39:00;;;;;;;14.65;2.28;;;14.80;99.90;;;;;;6271292;22;20362;-89
2023/10/05 04:41:31;;;;;;;14.07;2.37;;;14.30;99.90;;;;;;6247366;22;20378;-90
2023/10/05 04:44:00;;;;;;;13.13;2.35;;;14.60;99.90;;;;;;6273212;22;20438;-89
2023/10/05 04:46:28;;;;;;;18.58;2.50;;;14.80;99.90;;;;;;6271615;22;20365;-88
2023/10/05 04:49:12;;;;;;;13.65;2.92;;;14.40;99.90;;;;;;6273371;22;20370;-89
2023/10/05 04:51:40;;;;;;;14.73;2.97;;;14.70;99.90;;;;;;6269677;22;20403;-89
2023/10/05 04:54:10;;;;;;;14.88;2.95;;;14.40;99.90;;;;;;6247935;22;20359;-89
2023/10/05 05:07:09;;;;;;;16.95;2.80;;;14.60;99.90;;;;;;6272443;22;20374;-89
2023/10/05 05:09:41;;;;;;;11.45;2.28;;;14.20;99.90;;;;;;6271137;22;20447;-88
2023/10/05 05:12:09;;;;;;;18.05;3.25;;;14.20;99.90;;;;;;6245219;22;20367;-89
2023/10/05 05:14:41;;;;;;;17.83;2.97;;;14.70;99.90;;;;;;6247554;22;20354;-89
2023/10/05 05:17:07;;;;;;;18.17;2.77;;;14.10;99.90;;;;;;6270436;22;20359;-89
2023/10/05 05:19:36;;;;;;;15.32;2.63;;;14.10;99.90;;;;;;6247421;22;20373;-87
2023/10/05 05:22:05;;;;;;;11.40;2.30;;;14.20;99.90;;;;;;6270733;22;20367;-88
2023/10/05 05:24:31;;;;;;;15.63;2.92;;;14.20;99.90;;;;;;6246806;22;21042;-90
2023/10/05 05:27:00;;;;;;;16.60;2.95;;;14.20;99.90;;;;;;6247275;22;20437;-89
2023/10/05 05:29:29;;;;;;;14.38;2.60;;;14.20;99.90;;;;;;6271570;22;20366;-90
2023/10/05 05:31:56;;;;;;;17.42;3.10;;;14.30;99.90;;;;;;6272957;22;20892;-90
2023/10/05 05:34:25;;;;;;;17.02;2.97;;;14.40;99.90;;;;;;6245136;22;20370;-91
2023/10/05 05:36:54;;;;;;;14.30;2.63;;;14.40;99.90;;;;;;6272799;22;20366;-90
2023/10/05 05:39:21;;;;;;;13.88;2.63;;;14.40;99.90;;;;;;6270901;22;20366;-89
2023/10/05 05:41:56;;;;;;;14.45;2.92;;;14.70;99.90;;;;;;6272587;22;20563;-89
2023/10/05 05:44:22;;;;;;;14.97;2.60;;;14.50;99.90;;;;;;6248341;22;20402;-90
2023/10/05 05:46:52;;;;;;;11.45;2.22;;;14.70;99.90;;;;;;6246345;22;20400;-88
2023/10/05 05:49:21;;;;;;;15.68;2.60;;;14.90;99.90;;;;;;6247116;22;20882;-89
2023/10/05 05:51:47;;;;;;;15.55;2.92;;;14.60;99.90;;;;;;6245091;22;20773;-88
2023/10/05 05:54:13;;;;;;;17.05;2.90;;;15.00;99.90;;;;;;6272795;22;20355;-88
2023/10/05 05:56:42;;;;;;;15.90;3.03;;;14.40;99.90;;;;;;6270492;22;20669;-88
2023/10/05 05:59:08;;;;;;;14.43;2.80;;;14.90;99.90;;;;;;6272858;22;20448;-88
2023/10/05 06:01:37;;;;;;;14.70;3.08;;;14.90;99.90;;;;;;6272338;22;20370;-89
2023/10/05 06:04:06;;;;;;;14.95;2.88;;;14.90;99.90;;;;;;6271218;22;20386;-88
2023/10/05 06:06:31;;;;;;;15.45;2.50;;;14.80;99.90;;;;;;6272973;22;20367;-89
2023/10/05 06:08:57;;;;;;;15.23;2.87;;;15.30;99.90;;;;;;6271153;22;21364;-89
2023/10/05 06:11:23;;;;;;;14.18;2.63;;;14.80;99.90;;;;;;6247227;22;20404;-88
2023/10/05 06:13:49;;;;;;;12.82;2.72;;;14.90;99.90;;;;;;6245313;22;20359;-88
2023/10/05 06:16:15;;;;;;;13.80;2.83;;;15.10;99.90;;;;;;6247282;22;20680;-89
2023/10/05 06:18:41;;;;;;;14.95;3.03;;;14.90;99.90;;;;;;6271487;22;20359;-91
2023/10/05 06:21:07;;;;;;;14.00;2.88;;;15.20;99.90;;;;;;6272103;22;20471;-87
2023/10/05 06:23:36;;;;;;;14.37;2.67;;;15.10;99.90;;;;;;6247732;22;20410;-90
2023/10/05 06:26:02;;;;;;;14.88;2.85;;;15.40;99.90;;;;;;6245334;22;20375;-89
2023/10/05 06:28:32;;;;;;;14.10;2.80;;;15.30;99.90;;;;;;6272614;22;20374;-89
2023/10/05 06:30:58;;;;;;;13.98;2.83;;;14.90;99.90;;;;;;6245456;22;20375;-86
2023/10/05 06:33:25;;;;;;;16.10;2.92;;;15.30;99.90;;;;;;6247535;22;20751;-89
2023/10/05 06:35:51;;;;;;;13.87;3.07;;;15.60;99.90;;;;;;6271182;22;20394;-90
2023/10/05 06:38:16;;;;;;;13.55;2.83;;;15.30;99.90;;;;;;6272165;22;20366;-90
2023/10/05 06:40:42;;;;;;;17.83;3.33;;;15.50;99.90;;;;;;6247333;22;20742;-89
2023/10/05 06:43:08;;;;;;;14.53;2.87;;;15.50;99.90;;;;;;6270743;22;20374;-90
2023/10/05 06:45:36;;;;;;;13.57;2.97;;;15.70;99.90;;;;;;6272549;22;20362;-89
2023/10/05 06:48:06;;;;;;;14.70;3.00;;;15.30;99.90;;;;;;6270637;22;20366;-91
2023/10/05 06:50:32;;;;;;;15.18;3.15;;;15.30;99.90;;;;;;6246987;22;20688;-88
2023/10/05 06:52:58;;;;;;;16.42;3.22;;;15.60;99.90;;;;;;6271332;22;20387;-89
2023/10/05 06:55:25;;;;;;;15.10;3.25;;;15.40;99.90;;;;;;6272866;22;20776;-92
2023/10/05 06:57:51;;;;;;;17.23;3.05;;;15.30;99.90;;;;;;6271955;22;20394;-89
2023/10/05 07:00:21;;;;;;;16.27;3.20;;;15.40;99.90;;;;;;6271230;22;20371;-90
2023/10/05 07:02:53;;;;;;;14.32;2.50;;;15.40;99.90;;;;;;6274301;22;20564;-87
2023/10/05 07:05:20;;;;;;;13.90;2.63;;;15.40;99.90;;;;;;6272242;22;20707;-89
2023/10/05 07:07:45;;;;;;;14.15;2.83;;;15.40;99.90;;;;;;6274556;22;20363;-90
2023/10/05 07:10:14;;;;;;;12.53;2.70;;;15.50;99.90;;;;;;6245542;22;20377;-89
2023/10/05 07:12:46;;;;;;;11.35;2.28;;;15.60;99.90;;;;;;6247934;22;20367;-88
2023/10/05 07:15:17;;;;;;;11.80;2.63;;;15.40;99.90;;;;;;6248031;22;20373;-87
2023/10/05 07:17:43;;;;;;;14.68;2.65;;;15.40;99.90;;;;;;6271822;22;20374;-88
2023/10/05 07:20:11;;;;;;;11.77;2.55;;;15.40;99.90;;;;;;6248691;22;20703;-89
2023/10/05 07:22:40;;;;;;;12.70;2.58;;;15.40;99.90;;;;;;6246320;22;20395;-88
2023/10/05 07:25:08;;;;;;;15.50;2.72;;;15.40;99.90;;;;;;6242561;22;20400;-89
2023/10/05 07:27:34;;;;;;;13.20;2.58;;;15.40;99.90;;;;;;6266264;22;20405;-88
2023/10/05 07:30:03;;;;;;;17.75;3.20;;;15.40;99.90;;;;;;6268402;22;20360;-89
2023/10/05 07:32:29;;;;;;;12.05;2.95;;;15.40;99.90;;;;;;6267475;22;20380;-88
2023/10/05 07:34:55;;;;;;;16.00;2.50;;;15.40;99.90;;;;;;6267228;22;20418;-88
2023/10/05 07:37:21;;;;;;;14.23;3.00;;;15.50;99.90;;;;;;6267753;22;20697;-88
2023/10/05 07:39:47;;;;;;;15.50;2.80;;;15.50;99.90;;;;;;6240737;22;20360;-89
2023/10/05 07:42:12;;;;;;;12.95;2.60;;;15.50;99.90;;;;;;6268566;22;20404;-90
2023/10/05 07:44:39;;;;;;;13.43;3.10;;;15.50;99.90;;;;;;6241212;22;20380;-89
2023/10/05 07:47:06;;;;;;;16.55;2.67;;;15.60;99.90;;;;;;6243184;22;20365;-91
2023/10/05 07:49:35;;;;;;;14.97;3.50;;;15.90;99.90;;;;;;6241705;22;20768;-87
2023/10/05 07:52:14;;;;;;;12.02;3.33;;;15.60;99.90;;;;;;6267561;22;20372;-90
2023/10/05 07:54:40;;;;;;;15.70;3.90;;;15.60;99.90;;;;;;6242894;22;20361;-89
2023/10/05 07:57:09;;;;;;;12.45;3.28;;;15.60;99.90;;;;;;6266436;22;20360;-89
2023/10/05 07:59:42;;;;;;;15.38;3.72;;;15.80;99.90;;;;;;6268527;22;20366;-88
2023/10/05 08:02:10;;;;;;;18.53;3.67;;;15.70;99.90;;;;;;6266570;22;20410;-88
2023/10/05 08:04:36;;;;;;;18.42;3.83;;;16.10;99.90;;;;;;6268259;22;20392;-90
2023/10/05 08:07:02;;;;;;;15.13;3.17;;;16.20;99.90;;;;;;6241745;22;20447;-91
2023/10/05 08:09:29;;;;;;;12.75;3.42;;;16.00;99.90;;;;;;6241209;22;20380;-89
2023/10/05 08:11:56;;;;;;;13.57;3.38;;;15.60;99.90;;;;;;6268104;22;20352;-89
2023/10/05 08:14:24;;;;;;;15.60;3.03;;;16.00;99.90;;;;;;6265503;22;20379;-89
2023/10/05 08:16:50;;;;;;;14.35;3.42;;;15.70;99.90;;;;;;6267498;22;20360;-89
2023/10/05 08:19:17;;;;;;;14.00;3.00;;;16.40;99.90;;;;;;6240325;22;20410;-90
2023/10/05 08:21:43;;;;;;;11.60;2.97;;;16.10;99.90;;;;;;6268706;22;21133;-89
2023/10/05 08:24:09;;;;;;;15.50;3.60;;;16.30;99.90;;;;;;6242926;22;20399;-89
2023/10/05 08:26:35;;;;;;;12.90;2.97;;;16.20;99.90;;;;;;6247570;22;20960;-90
2023/10/05 08:29:01;;;;;;;13.35;3.05;;;16.10;99.90;;;;;;6247947;22;20358;-89
2023/10/05 08:31:28;;;;;;;14.35;2.97;;;16.00;99.90;;;;;;6271331;22;20362;-89
2023/10/05 08:33:54;;;;;;;13.55;2.63;;;16.30;99.90;;;;;;6273501;22;20650;-89
2023/10/05 08:36:23;;;;;;;14.50;2.97;;;16.30;99.90;;;;;;6270960;22;20374;-88
2023/10/05 08:38:49;;;;;;;11.70;2.58;;;16.40;99.90;;;;;;6273110;22;20394;-90
2023/10/05 08:41:36;;;;;;;10.75;2.65;;;16.70;99.90;;;;;;6245799;22;20723;-89
2023/10/05 08:44:11;;;;;;;11.57;2.65;;;16.60;99.90;;;;;;6272365;22;20392;-89
2023/10/05 08:46:43;;;;;;;11.52;2.60;;;16.40;99.90;;;;;;6273278;22;20367;-88
2023/10/05 08:49:10;;;;;;;13.18;2.65;;;16.40;99.90;;;;;;6270205;22;20422;-87
2023/10/05 08:51:40;;;;;;;12.80;3.13;;;16.50;99.90;;;;;;6247669;22;20366;-89
2023/10/05 08:54:13;;;;;;;13.20;3.05;;;16.80;99.90;;;;;;6271358;22;20362;-88
2023/10/05 08:56:45;;;;;;;12.10;2.80;;;16.50;99.90;;;;;;6272838;22;20460;-89
2023/10/05 08:59:14;;;;;;;10.25;2.33;;;16.50;99.90;;;;;;6247191;22;20377;-90
2023/10/05 09:01:46;;;;;;;13.00;3.13;;;16.70;99.90;;;;;;6271435;22;20390;-89
2023/10/05 09:07:08;;;;;;;11.27;2.70;;;16.70;99.90;;;;;;6270894;22;20370;-90
2023/10/05 09:09:52;;;;;;;11.68;2.80;;;16.80;99.90;;;;;;6273165;22;20397;-89
2023/10/05 09:15:22;;;;;;;11.13;3.10;;;17.00;99.90;;;;;;6270913;22;20374;-90
2023/10/05 09:17:57;;;;;;;10.68;2.78;;;17.10;99.90;;;;;;6248330;22;20371;-89
2023/10/05 09:20:33;;;;;;;9.52;2.83;;;17.20;99.90;;;;;;6270807;22;20374;-88
2023/10/05 09:23:04;;;;;;;9.32;2.70;;;17.30;99.90;;;;;;6271946;22;20362;-88
2023/10/05 09:25:34;;;;;;;10.67;2.80;;;17.30;99.90;;;;;;6272369;22;20956;-89
2023/10/05 09:28:13;;;;;;;10.65;2.20;;;17.80;99.90;;;;;;6245190;22;20381;-90
2023/10/05 09:30:57;;;;;;;12.80;2.58;;;17.30;99.90;;;;;;6247187;22;20896;-89
2023/10/05 09:33:27;;;;;;;9.63;2.55;;;17.80;99.90;;;;;;6271541;22;20461;-91
2023/10/05 09:36:06;;;;;;;13.50;2.65;;;17.30;99.90;;;;;;6271846;22;20367;-91
2023/10/05 09:38:38;;;;;;;12.82;2.85;;;17.60;99.90;;;;;;6246782;22;20396;-93
2023/10/05 09:41:06;;;;;;;13.32;2.47;;;17.60;99.90;;;;;;6245590;22;20366;-89
2023/10/05 09:43:38;;;;;;;13.30;2.60;;;17.40;99.90;;;;;;6272193;22;20363;-88
2023/10/05 09:46:09;;;;;;;13.50;3.00;;;17.50;99.90;;;;;;6244367;22;20359;-87
2023/10/05 09:48:39;;;;;;;10.05;2.70;;;17.40;99.90;;;;;;6272016;22;20874;-89
2023/10/05 09:51:10;;;;;;;14.02;3.17;;;17.40;99.90;;;;;;6245729;22;20445;-89
2023/10/05 09:53:39;;;;;;;12.93;3.30;;;17.10;99.90;;;;;;6270265;22;20692;-88
2023/10/05 09:56:07;;;;;;;13.07;4.17;;;17.20;99.90;;;;;;6272116;22;20367;-90
2023/10/05 09:58:34;;;;;;;13.98;3.28;;;17.20;99.90;;;;;;6269961;22;20370;-90
2023/10/05 10:01:12;;;;;;;11.80;3.10;;;17.20;99.90;;;;;;6246915;22;20374;-89
2023/10/05 10:03:45;;;;;;;11.75;3.45;;;17.30;99.90;;;;;;6244749;22;20437;-90
2023/10/05 10:06:14;;;;;;;14.63;3.60;;;17.70;99.90;;;;;;6271753;22;20947;-89
2023/10/05 10:08:53;;;;;;;14.45;3.47;;;17.70;99.90;;;;;;6271305;22;20363;-89
2023/10/05 10:11:24;;;;;;;13.35;3.70;;;17.60;99.90;;;;;;6244018;22;20826;-88
2023/10/05 10:14:04;;;;;;;12.65;3.05;;;17.70;99.90;;;;;;6246583;22;20367;-88
2023/10/05 10:16:33;;;;;;;13.30;2.90;;;17.70;99.90;;;;;;6245011;22;20436;-90
2023/10/05 10:19:07;;;;;;;10.85;3.22;;;17.80;99.90;;;;;;6270325;22;20404;-88
2023/10/05 10:21:46;;;;;;;10.67;2.80;;;17.80;99.90;;;;;;6271982;22;20421;-88
2023/10/05 10:24:15;;;;;;;12.53;2.93;;;18.20;99.90;;;;;;6243580;22;20386;-89
2023/10/05 10:27:07;;;;;;;11.35;2.55;;;18.10;99.90;;;;;;6272067;22;20745;-88
2023/10/05 10:30:02;;;;;;;12.25;3.00;;;18.20;99.90;;;;;;6270995;22;20371;-90
2023/10/05 10:32:34;;;;;;;10.55;2.53;;;17.90;99.90;;;;;;6213355;22;20377;-90
2023/10/05 10:35:09;;;;;;;11.57;2.92;;;18.00;99.90;;;;;;6272286;22;20371;-89
2023/10/05 10:37:39;;;;;;;11.35;2.33;;;18.00;99.90;;;;;;6271770;22;20362;-90
2023/10/05 10:40:25;;;;;;;9.43;2.20;;;18.10;99.90;;;;;;6274353;22;20688;-89
2023/10/05 10:45:46;;;;;;;11.45;2.75;;;18.60;99.90;;;;;;6271507;22;20390;-89
2023/10/05 10:50:45;;;;;;;9.50;1.70;;;19.40;99.90;;;;;;6272483;22;20366;-89
2023/10/05 10:53:17;;;;;;;10.13;1.77;;;18.90;99.90;;;;;;6250275;22;20446;-89
2023/10/05 10:55:51;;;;;;;7.90;1.92;;;19.00;99.90;;;;;;6247417;22;20370;-89
2023/10/05 10:58:24;;;;;;;13.23;2.67;;;19.00;99.90;;;;;;6247204;22;20400;-89
2023/10/05 11:00:59;;;;;;;8.68;2.08;;;19.10;99.90;;;;;;6273990;22;20393;-89
2023/10/05 11:03:27;;;;;;;13.07;2.10;;;19.20;99.90;;;;;;6272167;22;20906;-91
2023/10/05 11:05:54;;;;;;;14.63;2.50;;;19.70;99.90;;;;;;6274007;22;20378;-89
2023/10/05 11:08:20;;;;;;;8.90;1.77;;;19.60;99.90;;;;;;6272493;22;20838;-88
2023/10/05 11:11:15;;;;;;;8.15;1.67;;;19.70;99.90;;;;;;6248393;22;20366;-90
2023/10/05 11:13:49;;;;;;;13.77;2.25;;;19.50;99.90;;;;;;6248883;22;20850;-89
2023/10/05 11:16:19;;;;;;;11.07;2.00;;;19.40;99.90;;;;;;6272426;22;20441;-90
2023/10/05 11:18:58;;;;;;;11.13;2.10;;;19.30;99.90;;;;;;6249332;22;20704;-92
2023/10/05 11:21:26;;;;;;;9.00;1.80;;;19.80;99.90;;;;;;6272735;22;20378;-90
2023/10/05 11:23:56;;;;;;;6.77;1.20;;;19.50;99.90;;;;;;6249210;22;20867;-90
2023/10/05 11:26:35;;;;;;;6.75;1.30;;;19.60;99.90;;;;;;6274433;22;20379;-89
2023/10/05 11:29:14;;;;;;;8.55;1.48;;;19.60;99.90;;;;;;6273051;22;20696;-90
2023/10/05 11:31:40;;;;;;;8.10;1.53;;;19.60;99.90;;;;;;6249277;22;20359;-91
2023/10/05 11:34:09;;;;;;;8.55;1.77;;;19.10;99.90;;;;;;6272517;22;20370;-90
2023/10/05 11:36:39;;;;;;;9.98;2.10;;;19.20;99.90;;;;;;6248846;22;20366;-91
2023/10/05 11:39:20;;;;;;;11.18;2.45;;;18.70;99.90;;;;;;6248442;22;20436;-89
2023/10/05 11:41:46;;;;;;;8.73;2.27;;;18.30;99.90;;;;;;6247993;22;20452;-91
2023/10/05 11:44:15;;;;;;;9.30;2.40;;;17.80;99.90;;;;;;6248403;22;20394;-89
2023/10/05 11:46:45;;;;;;;13.52;2.22;;;18.30;99.90;;;;;;6246545;22;20366;-90
2023/10/05 11:49:13;;;;;;;9.40;2.67;;;17.90;99.90;;;;;;6274596;22;20406;-89
2023/10/05 11:51:42;;;;;;;10.10;2.53;;;17.80;99.90;;;;;;6271632;22;20396;-90
2023/10/05 11:54:19;;;;;;;13.83;2.70;;;18.20;99.90;;;;;;6274332;22;20367;-90
2023/10/05 11:56:46;;;;;;;10.85;2.97;;;17.70;99.90;;;;;;6273702;22;20394;-88
2023/10/05 11:59:12;;;;;;;13.43;2.97;;;18.10;99.90;;;;;;6246888;22;20374;-93
2023/10/05 12:01:40;;;;;;;10.23;2.40;;;17.90;99.90;;;;;;6247695;22;20378;-91
2023/10/05 12:04:09;;;;;;;10.60;2.20;;;17.70;99.90;;;;;;6271974;22;20386;-90
2023/10/05 12:06:37;;;;;;;9.30;1.90;;;17.10;99.90;;;;;;6248583;22;20398;-90
2023/10/05 12:09:07;;;;;;;10.20;2.90;;;16.90;99.90;;;;;;6246857;22;20367;-88
2023/10/05 12:11:33;;;;;;;11.50;2.93;;;16.90;99.90;;;;;;6247982;22;20365;-89
2023/10/05 12:14:00;;;;;;;11.38;2.90;;;16.60;99.90;;;;;;6272224;22;20844;-88
2023/10/05 12:16:32;;;;;;;13.02;3.08;;;16.80;99.90;;;;;;6246752;22;20449;-89
2023/10/05 12:19:21;;;;;;;9.82;2.42;;;17.30;99.90;;;;;;6274041;22;20409;-90
2023/10/05 12:21:47;;;;;;;9.73;2.40;;;16.80;99.90;;;;;;6246023;22;20366;-90
2023/10/05 12:24:13;;;;;;;10.52;2.08;;;16.80;99.90;;;;;;6273232;22;20391;-89
2023/10/05 12:26:42;;;;;;;8.65;1.92;;;16.80;99.90;;;;;;6246582;22;20362;-90
2023/10/05 12:29:12;;;;;;;8.87;1.67;;;16.80;99.90;;;;;;6272563;22;20370;-90
2023/10/05 12:31:45;;;;;;;10.65;2.25;;;16.80;99.90;;;;;;6247917;22;20385;-89
2023/10/05 12:34:15;;;;;;;10.82;2.17;;;16.90;99.90;;;;;;6271711;22;20696;-89
2023/10/05 12:36:46;;;;;;;7.97;2.00;;;17.10;99.90;;;;;;6248116;22;20386;-88
2023/10/05 12:39:12;;;;;;;12.13;2.40;;;17.60;99.90;;;;;;6270668;22;20358;-89
2023/10/05 12:41:40;;;;;;;11.70;2.50;;;17.70;99.90;;;;;;6273476;22;20371;-91
2023/10/05 12:44:09;;;;;;;13.83;2.93;;;17.90;99.90;;;;;;6247587;22;20383;-91
2023/10/05 12:46:39;;;;;;;12.05;2.22;;;18.30;99.90;;;;;;6272308;22;20399;-89
2023/10/05 12:49:08;;;;;;;11.38;2.35;;;18.70;99.90;;;;;;6273410;22;20474;-88
2023/10/05 12:51:38;;;;;;;13.73;2.33;;;18.90;99.90;;;;;;6270623;22;20837;-89
2023/10/05 12:54:09;;;;;;;11.75;2.40;;;19.50;99.90;;;;;;6274266;22;20425;-90
2023/10/05 12:56:38;;;;;;;11.05;2.15;;;19.30;99.90;;;;;;6246724;22;20366;-89
2023/10/05 12:59:07;;;;;;;11.15;2.50;;;19.30;99.90;;;;;;6247806;22;20437;-89
2023/10/05 13:01:42;;;;;;;12.38;2.55;;;19.30;99.90;;;;;;6272272;22;20374;-89
2023/10/05 13:04:09;;;;;;;9.60;1.80;;;19.30;99.90;;;;;;6271113;22;20390;-90
2023/10/05 13:06:37;;;;;;;12.43;1.80;;;19.50;99.90;;;;;;6273421;22;20908;-91
2023/10/05 13:09:04;;;;;;;9.02;1.90;;;19.60;99.90;;;;;;6271201;22;20363;-89
2023/10/05 13:11:33;;;;;;;10.55;1.75;;;19.20;99.90;;;;;;6273635;22;20453;-90
2023/10/05 13:13:58;;;;;;;8.57;1.50;;;19.10;99.90;;;;;;6271859;22;20917;-89
2023/10/05 13:16:24;;;;;;;9.13;1.80;;;19.40;99.90;;;;;;6247762;22;20402;-88
2023/10/05 13:18:50;;;;;;;7.38;1.73;;;19.00;99.90;;;;;;6271975;22;21204;-89
2023/10/05 13:21:16;;;;;;;10.20;1.50;;;19.20;99.90;;;;;;6246760;22;20665;-89
2023/10/05 13:23:42;;;;;;;8.82;1.88;;;19.00;99.90;;;;;;6247527;22;20421;-88
2023/10/05 13:26:08;;;;;;;7.72;1.38;;;18.70;99.90;;;;;;6271005;22;20863;-89
2023/10/05 13:28:34;;;;;;;9.00;1.40;;;18.90;99.90;;;;;;6272716;22;20363;-88